sensor_id;sensor_type;location;lat;lon;timestamp;P1;durP1;ratioP1;P2;durP2;ratioP2
24419;SDS011;12599;52.426;13.330;2022-10-16T00:01:13;2.17;;;2.00;;
24419;SDS011;12599;52.426;13.330;2022-10-16T00:03:40;2.33;;;2.13;;
24419;SDS011;12599;52.426;13.330;2022-10-16T00:06:07;2.23;;;2.03;;
24419;SDS011;12599;52.426;13.330;2022-10-16T00:08:33;3.50;;;2.30;;
24419;SDS011;12599;52.426;13.330;2022-10-16T00:11:00;2.10;;;1.87;;
24419;SDS011;12599;52.426;13.330;2022-10-16T00:13:28;2.50;;;1.90;;
24419;SDS011;12599;52.426;13.330;2022-10-16T00:15:56;2.70;;;2.10;;
24419;SDS011;12599;52.426;13.330;2022-10-16T00:18:22;2.80;;;1.53;;
24419;SDS011;12599;52.426;13.330;2022-10-16T00:20:48;1.83;;;1.70;;
24419;SDS011;12599;52.426;13.330;2022-10-16T00:23:13;1.97;;;1.83;;
24419;SDS011;12599;52.426;13.330;2022-10-16T00:25:39;1.70;;;1.60;;
24419;SDS011;12599;52.426;13.330;2022-10-16T00:28:04;2.37;;;1.90;;
24419;SDS011;12599;52.426;13.330;2022-10-16T00:30:30;1.97;;;1.80;;
24419;SDS011;12599;52.426;13.330;2022-10-16T00:32:55;5.87;;;1.90;;
24419;SDS011;12599;52.426;13.330;2022-10-16T00:35:21;2.80;;;1.90;;
24419;SDS011;12599;52.426;13.330;2022-10-16T00:37:47;2.17;;;1.60;;
24419;SDS011;12599;52.426;13.330;2022-10-16T00:40:12;1.70;;;1.60;;
24419;SDS011;12599;52.426;13.330;2022-10-16T00:42:38;2.53;;;1.70;;
24419;SDS011;12599;52.426;13.330;2022-10-16T00:45:04;1.50;;;1.40;;
24419;SDS011;12599;52.426;13.330;2022-10-16T00:47:32;1.70;;;1.60;;
24419;SDS011;12599;52.426;13.330;2022-10-16T00:50:04;2.60;;;1.87;;
24419;SDS011;12599;52.426;13.330;2022-10-16T00:52:37;1.43;;;1.33;;
24419;SDS011;12599;52.426;13.330;2022-10-16T00:55:06;1.50;;;1.30;;
24419;SDS011;12599;52.426;13.330;2022-10-16T00:57:34;1.73;;;1.63;;
24419;SDS011;12599;52.426;13.330;2022-10-16T01:00:00;2.90;;;1.50;;
24419;SDS011;12599;52.426;13.330;2022-10-16T01:02:28;1.93;;;1.67;;
24419;SDS011;12599;52.426;13.330;2022-10-16T01:04:53;2.03;;;1.80;;
24419;SDS011;12599;52.426;13.330;2022-10-16T01:12:42;1.40;;;1.30;;
24419;SDS011;12599;52.426;13.330;2022-10-16T01:15:24;2.17;;;1.60;;
24419;SDS011;12599;52.426;13.330;2022-10-16T01:18:08;3.10;;;1.43;;
24419;SDS011;12599;52.426;13.330;2022-10-16T01:31:15;2.47;;;1.80;;
24419;SDS011;12599;52.426;13.330;2022-10-16T01:33:50;4.60;;;1.60;;
24419;SDS011;12599;52.426;13.330;2022-10-16T01:36:37;1.80;;;1.67;;
24419;SDS011;12599;52.426;13.330;2022-10-16T01:39:07;2.73;;;2.10;;
24419;SDS011;12599;52.426;13.330;2022-10-16T01:41:46;1.40;;;1.30;;
24419;SDS011;12599;52.426;13.330;2022-10-16T01:44:19;2.00;;;1.80;;
24419;SDS011;12599;52.426;13.330;2022-10-16T01:46:50;2.70;;;1.53;;
24419;SDS011;12599;52.426;13.330;2022-10-16T01:49:17;2.10;;;1.40;;
24419;SDS011;12599;52.426;13.330;2022-10-16T01:51:45;2.13;;;1.80;;
24419;SDS011;12599;52.426;13.330;2022-10-16T01:54:16;1.80;;;1.60;;
24419;SDS011;12599;52.426;13.330;2022-10-16T01:56:43;2.70;;;1.70;;
24419;SDS011;12599;52.426;13.330;2022-10-16T01:59:13;2.20;;;1.67;;
24419;SDS011;12599;52.426;13.330;2022-10-16T02:01:45;2.90;;;1.93;;
24419;SDS011;12599;52.426;13.330;2022-10-16T02:04:21;1.97;;;1.53;;
24419;SDS011;12599;52.426;13.330;2022-10-16T02:06:54;1.50;;;1.40;;
24419;SDS011;12599;52.426;13.330;2022-10-16T02:09:20;1.90;;;1.60;;
24419;SDS011;12599;52.426;13.330;2022-10-16T02:11:46;2.97;;;1.87;;
24419;SDS011;12599;52.426;13.330;2022-10-16T02:14:14;3.10;;;1.90;;
24419;SDS011;12599;52.426;13.330;2022-10-16T02:16:40;2.00;;;1.80;;
24419;SDS011;12599;52.426;13.330;2022-10-16T02:19:08;2.53;;;1.70;;
24419;SDS011;12599;52.426;13.330;2022-10-16T02:21:44;1.50;;;1.40;;
24419;SDS011;12599;52.426;13.330;2022-10-16T02:24:23;3.20;;;1.63;;
24419;SDS011;12599;52.426;13.330;2022-10-16T02:29:27;2.17;;;1.93;;
24419;SDS011;12599;52.426;13.330;2022-10-16T02:32:01;1.80;;;1.30;;
24419;SDS011;12599;52.426;13.330;2022-10-16T02:34:29;2.40;;;1.67;;
24419;SDS011;12599;52.426;13.330;2022-10-16T02:36:57;3.07;;;1.70;;
24419;SDS011;12599;52.426;13.330;2022-10-16T02:39:26;1.63;;;1.53;;
24419;SDS011;12599;52.426;13.330;2022-10-16T02:41:53;1.80;;;1.37;;
24419;SDS011;12599;52.426;13.330;2022-10-16T02:44:19;2.37;;;1.60;;
24419;SDS011;12599;52.426;13.330;2022-10-16T02:46:45;1.63;;;1.50;;
24419;SDS011;12599;52.426;13.330;2022-10-16T02:49:10;4.53;;;1.60;;
24419;SDS011;12599;52.426;13.330;2022-10-16T02:51:36;1.80;;;1.70;;
24419;SDS011;12599;52.426;13.330;2022-10-16T02:54:02;2.20;;;1.07;;
24419;SDS011;12599;52.426;13.330;2022-10-16T02:56:28;3.90;;;1.77;;
24419;SDS011;12599;52.426;13.330;2022-10-16T02:58:54;1.73;;;1.40;;
24419;SDS011;12599;52.426;13.330;2022-10-16T03:01:20;1.93;;;1.60;;
24419;SDS011;12599;52.426;13.330;2022-10-16T03:03:46;2.47;;;1.60;;
24419;SDS011;12599;52.426;13.330;2022-10-16T03:06:12;2.57;;;1.40;;
24419;SDS011;12599;52.426;13.330;2022-10-16T03:08:37;1.73;;;1.60;;
24419;SDS011;12599;52.426;13.330;2022-10-16T03:11:03;2.43;;;1.90;;
24419;SDS011;12599;52.426;13.330;2022-10-16T03:13:29;1.57;;;1.47;;
24419;SDS011;12599;52.426;13.330;2022-10-16T03:15:55;1.33;;;1.20;;
24419;SDS011;12599;52.426;13.330;2022-10-16T03:18:20;2.03;;;1.40;;
24419;SDS011;12599;52.426;13.330;2022-10-16T03:20:46;2.57;;;1.57;;
24419;SDS011;12599;52.426;13.330;2022-10-16T03:23:11;1.50;;;1.40;;
24419;SDS011;12599;52.426;13.330;2022-10-16T03:25:37;1.70;;;1.60;;
24419;SDS011;12599;52.426;13.330;2022-10-16T03:28:03;2.90;;;1.47;;
24419;SDS011;12599;52.426;13.330;2022-10-16T03:30:28;1.77;;;1.40;;
24419;SDS011;12599;52.426;13.330;2022-10-16T03:32:54;2.00;;;1.60;;
24419;SDS011;12599;52.426;13.330;2022-10-16T03:35:20;2.53;;;1.70;;
24419;SDS011;12599;52.426;13.330;2022-10-16T03:37:47;4.43;;;1.80;;
24419;SDS011;12599;52.426;13.330;2022-10-16T03:40:13;1.20;;;1.10;;
24419;SDS011;12599;52.426;13.330;2022-10-16T03:42:38;1.73;;;1.63;;
24419;SDS011;12599;52.426;13.330;2022-10-16T03:45:04;1.87;;;1.77;;
24419;SDS011;12599;52.426;13.330;2022-10-16T03:47:33;2.17;;;1.60;;
24419;SDS011;12599;52.426;13.330;2022-10-16T03:49:59;1.90;;;1.70;;
24419;SDS011;12599;52.426;13.330;2022-10-16T03:52:25;1.77;;;1.67;;
24419;SDS011;12599;52.426;13.330;2022-10-16T03:54:53;3.60;;;2.20;;
24419;SDS011;12599;52.426;13.330;2022-10-16T03:57:18;1.67;;;1.57;;
24419;SDS011;12599;52.426;13.330;2022-10-16T03:59:45;1.50;;;1.40;;
24419;SDS011;12599;52.426;13.330;2022-10-16T04:02:11;1.83;;;1.43;;
24419;SDS011;12599;52.426;13.330;2022-10-16T04:04:37;1.93;;;1.80;;
24419;SDS011;12599;52.426;13.330;2022-10-16T04:07:02;2.17;;;1.67;;
24419;SDS011;12599;52.426;13.330;2022-10-16T04:09:28;1.77;;;1.67;;
24419;SDS011;12599;52.426;13.330;2022-10-16T04:11:54;1.80;;;1.70;;
24419;SDS011;12599;52.426;13.330;2022-10-16T04:14:19;1.93;;;1.50;;
24419;SDS011;12599;52.426;13.330;2022-10-16T04:16:45;2.57;;;1.73;;
24419;SDS011;12599;52.426;13.330;2022-10-16T04:19:10;2.00;;;1.63;;
24419;SDS011;12599;52.426;13.330;2022-10-16T04:21:36;2.57;;;1.70;;
24419;SDS011;12599;52.426;13.330;2022-10-16T04:24:02;2.57;;;1.67;;
24419;SDS011;12599;52.426;13.330;2022-10-16T04:26:28;1.97;;;1.67;;
24419;SDS011;12599;52.426;13.330;2022-10-16T04:28:54;2.13;;;1.70;;
24419;SDS011;12599;52.426;13.330;2022-10-16T04:31:20;2.33;;;1.73;;
24419;SDS011;12599;52.426;13.330;2022-10-16T04:33:45;3.03;;;1.80;;
24419;SDS011;12599;52.426;13.330;2022-10-16T04:36:11;5.27;;;1.90;;
24419;SDS011;12599;52.426;13.330;2022-10-16T04:38:37;5.23;;;1.67;;
24419;SDS011;12599;52.426;13.330;2022-10-16T04:41:04;1.63;;;1.53;;
24419;SDS011;12599;52.426;13.330;2022-10-16T04:43:30;1.70;;;1.60;;
24419;SDS011;12599;52.426;13.330;2022-10-16T04:45:56;2.10;;;1.80;;
24419;SDS011;12599;52.426;13.330;2022-10-16T04:48:22;4.27;;;1.60;;
24419;SDS011;12599;52.426;13.330;2022-10-16T04:50:47;2.10;;;1.90;;
24419;SDS011;12599;52.426;13.330;2022-10-16T04:53:13;2.23;;;1.80;;
24419;SDS011;12599;52.426;13.330;2022-10-16T04:55:39;2.23;;;1.63;;
24419;SDS011;12599;52.426;13.330;2022-10-16T04:58:06;2.23;;;1.70;;
24419;SDS011;12599;52.426;13.330;2022-10-16T05:00:32;2.10;;;1.90;;
24419;SDS011;12599;52.426;13.330;2022-10-16T05:02:58;3.43;;;1.70;;
24419;SDS011;12599;52.426;13.330;2022-10-16T05:05:25;3.93;;;2.20;;
24419;SDS011;12599;52.426;13.330;2022-10-16T05:07:51;4.33;;;2.00;;
24419;SDS011;12599;52.426;13.330;2022-10-16T05:10:17;2.97;;;1.90;;
24419;SDS011;12599;52.426;13.330;2022-10-16T05:12:42;2.87;;;1.80;;
24419;SDS011;12599;52.426;13.330;2022-10-16T05:15:08;1.97;;;1.80;;
24419;SDS011;12599;52.426;13.330;2022-10-16T05:17:34;2.00;;;1.90;;
24419;SDS011;12599;52.426;13.330;2022-10-16T05:19:59;2.00;;;1.90;;
24419;SDS011;12599;52.426;13.330;2022-10-16T05:22:25;4.40;;;2.37;;
24419;SDS011;12599;52.426;13.330;2022-10-16T05:24:50;2.30;;;2.10;;
24419;SDS011;12599;52.426;13.330;2022-10-16T05:27:16;5.50;;;2.47;;
24419;SDS011;12599;52.426;13.330;2022-10-16T05:29:45;2.67;;;2.20;;
24419;SDS011;12599;52.426;13.330;2022-10-16T05:32:12;3.20;;;2.10;;
24419;SDS011;12599;52.426;13.330;2022-10-16T05:34:38;3.67;;;2.30;;
24419;SDS011;12599;52.426;13.330;2022-10-16T05:37:03;3.40;;;2.20;;
24419;SDS011;12599;52.426;13.330;2022-10-16T05:39:29;3.70;;;2.20;;
24419;SDS011;12599;52.426;13.330;2022-10-16T05:41:54;2.33;;;2.13;;
24419;SDS011;12599;52.426;13.330;2022-10-16T05:44:20;2.30;;;2.10;;
24419;SDS011;12599;52.426;13.330;2022-10-16T05:46:46;2.93;;;2.40;;
24419;SDS011;12599;52.426;13.330;2022-10-16T05:49:11;3.60;;;2.60;;
24419;SDS011;12599;52.426;13.330;2022-10-16T05:51:37;2.60;;;2.40;;
24419;SDS011;12599;52.426;13.330;2022-10-16T05:54:10;2.57;;;2.37;;
24419;SDS011;12599;52.426;13.330;2022-10-16T05:56:36;2.93;;;2.20;;
24419;SDS011;12599;52.426;13.330;2022-10-16T05:59:03;4.33;;;2.37;;
24419;SDS011;12599;52.426;13.330;2022-10-16T06:01:29;2.80;;;2.10;;
24419;SDS011;12599;52.426;13.330;2022-10-16T06:03:55;3.10;;;2.40;;
24419;SDS011;12599;52.426;13.330;2022-10-16T06:06:22;3.50;;;2.40;;
24419;SDS011;12599;52.426;13.330;2022-10-16T06:08:51;3.37;;;2.50;;
24419;SDS011;12599;52.426;13.330;2022-10-16T06:11:19;3.30;;;2.50;;
24419;SDS011;12599;52.426;13.330;2022-10-16T06:13:50;2.87;;;2.57;;
24419;SDS011;12599;52.426;13.330;2022-10-16T06:16:17;3.50;;;2.43;;
24419;SDS011;12599;52.426;13.330;2022-10-16T06:18:43;3.87;;;2.30;;
24419;SDS011;12599;52.426;13.330;2022-10-16T06:21:13;2.87;;;2.57;;
24419;SDS011;12599;52.426;13.330;2022-10-16T06:23:41;2.17;;;1.97;;
24419;SDS011;12599;52.426;13.330;2022-10-16T06:26:07;3.27;;;2.23;;
24419;SDS011;12599;52.426;13.330;2022-10-16T06:28:34;2.70;;;2.03;;
24419;SDS011;12599;52.426;13.330;2022-10-16T06:31:00;2.63;;;2.00;;
24419;SDS011;12599;52.426;13.330;2022-10-16T06:33:27;4.80;;;1.90;;
24419;SDS011;12599;52.426;13.330;2022-10-16T06:35:53;3.93;;;2.10;;
24419;SDS011;12599;52.426;13.330;2022-10-16T06:38:18;1.97;;;1.87;;
24419;SDS011;12599;52.426;13.330;2022-10-16T06:40:44;3.47;;;2.70;;
24419;SDS011;12599;52.426;13.330;2022-10-16T06:43:09;2.83;;;2.00;;
24419;SDS011;12599;52.426;13.330;2022-10-16T06:45:35;3.07;;;1.90;;
24419;SDS011;12599;52.426;13.330;2022-10-16T06:48:00;2.40;;;2.07;;
24419;SDS011;12599;52.426;13.330;2022-10-16T06:50:26;2.43;;;2.13;;
24419;SDS011;12599;52.426;13.330;2022-10-16T06:52:55;2.17;;;1.90;;
24419;SDS011;12599;52.426;13.330;2022-10-16T06:55:20;2.80;;;2.00;;
24419;SDS011;12599;52.426;13.330;2022-10-16T06:57:46;3.87;;;1.90;;
24419;SDS011;12599;52.426;13.330;2022-10-16T07:00:13;3.73;;;1.90;;
24419;SDS011;12599;52.426;13.330;2022-10-16T07:02:39;2.23;;;2.00;;
24419;SDS011;12599;52.426;13.330;2022-10-16T07:05:05;2.13;;;1.70;;
24419;SDS011;12599;52.426;13.330;2022-10-16T07:07:30;2.63;;;2.00;;
24419;SDS011;12599;52.426;13.330;2022-10-16T07:09:56;3.53;;;2.40;;
24419;SDS011;12599;52.426;13.330;2022-10-16T07:12:25;3.23;;;2.33;;
24419;SDS011;12599;52.426;13.330;2022-10-16T07:14:50;1.70;;;1.60;;
24419;SDS011;12599;52.426;13.330;2022-10-16T07:17:17;2.17;;;1.53;;
24419;SDS011;12599;52.426;13.330;2022-10-16T07:19:43;1.63;;;1.53;;
24419;SDS011;12599;52.426;13.330;2022-10-16T07:22:09;2.43;;;1.50;;
24419;SDS011;12599;52.426;13.330;2022-10-16T07:24:35;3.77;;;1.47;;
24419;SDS011;12599;52.426;13.330;2022-10-16T07:27:03;1.50;;;1.40;;
24419;SDS011;12599;52.426;13.330;2022-10-16T07:29:29;2.90;;;1.60;;
24419;SDS011;12599;52.426;13.330;2022-10-16T07:31:55;2.13;;;1.60;;
24419;SDS011;12599;52.426;13.330;2022-10-16T07:34:20;4.40;;;1.70;;
24419;SDS011;12599;52.426;13.330;2022-10-16T07:36:50;1.70;;;1.10;;
24419;SDS011;12599;52.426;13.330;2022-10-16T07:39:16;1.83;;;1.60;;
24419;SDS011;12599;52.426;13.330;2022-10-16T07:41:42;1.83;;;1.43;;
24419;SDS011;12599;52.426;13.330;2022-10-16T07:44:07;3.17;;;1.40;;
24419;SDS011;12599;52.426;13.330;2022-10-16T07:46:33;2.13;;;1.43;;
24419;SDS011;12599;52.426;13.330;2022-10-16T07:49:00;1.40;;;1.30;;
24419;SDS011;12599;52.426;13.330;2022-10-16T07:51:27;1.80;;;1.50;;
24419;SDS011;12599;52.426;13.330;2022-10-16T07:53:52;3.37;;;1.60;;
24419;SDS011;12599;52.426;13.330;2022-10-16T07:56:19;3.63;;;2.03;;
24419;SDS011;12599;52.426;13.330;2022-10-16T07:58:46;1.90;;;1.80;;
24419;SDS011;12599;52.426;13.330;2022-10-16T08:01:12;6.83;;;2.07;;
24419;SDS011;12599;52.426;13.330;2022-10-16T08:03:50;3.03;;;1.90;;
24419;SDS011;12599;52.426;13.330;2022-10-16T08:06:17;2.23;;;1.60;;
24419;SDS011;12599;52.426;13.330;2022-10-16T08:08:43;2.73;;;2.00;;
24419;SDS011;12599;52.426;13.330;2022-10-16T08:11:09;24.47;;;15.37;;
24419;SDS011;12599;52.426;13.330;2022-10-16T08:13:35;13.50;;;7.13;;
24419;SDS011;12599;52.426;13.330;2022-10-16T08:16:01;10.13;;;6.03;;
24419;SDS011;12599;52.426;13.330;2022-10-16T08:18:28;5.87;;;3.10;;
24419;SDS011;12599;52.426;13.330;2022-10-16T08:20:58;4.27;;;2.30;;
24419;SDS011;12599;52.426;13.330;2022-10-16T08:23:25;18.70;;;13.13;;
24419;SDS011;12599;52.426;13.330;2022-10-16T08:25:52;17.50;;;10.43;;
24419;SDS011;12599;52.426;13.330;2022-10-16T08:28:21;21.20;;;11.50;;
24419;SDS011;12599;52.426;13.330;2022-10-16T08:30:49;22.50;;;12.73;;
24419;SDS011;12599;52.426;13.330;2022-10-16T08:33:14;12.13;;;6.47;;
24419;SDS011;12599;52.426;13.330;2022-10-16T08:35:40;9.00;;;4.30;;
24419;SDS011;12599;52.426;13.330;2022-10-16T08:38:06;23.93;;;15.13;;
24419;SDS011;12599;52.426;13.330;2022-10-16T08:40:33;9.53;;;5.43;;
24419;SDS011;12599;52.426;13.330;2022-10-16T08:43:20;3.73;;;2.10;;
24419;SDS011;12599;52.426;13.330;2022-10-16T08:48:47;2.80;;;1.50;;
24419;SDS011;12599;52.426;13.330;2022-10-16T08:51:34;1.17;;;1.07;;
24419;SDS011;12599;52.426;13.330;2022-10-16T08:54:06;2.93;;;1.10;;
24419;SDS011;12599;52.426;13.330;2022-10-16T08:56:47;1.53;;;1.20;;
24419;SDS011;12599;52.426;13.330;2022-10-16T08:59:13;3.83;;;1.80;;
24419;SDS011;12599;52.426;13.330;2022-10-16T09:01:41;3.27;;;2.17;;
24419;SDS011;12599;52.426;13.330;2022-10-16T09:07:35;2.20;;;1.40;;
24419;SDS011;12599;52.426;13.330;2022-10-16T09:12:58;5.53;;;1.63;;
24419;SDS011;12599;52.426;13.330;2022-10-16T09:18:26;1.63;;;1.40;;
24419;SDS011;12599;52.426;13.330;2022-10-16T09:21:01;2.60;;;1.50;;
24419;SDS011;12599;52.426;13.330;2022-10-16T09:23:34;2.93;;;1.47;;
24419;SDS011;12599;52.426;13.330;2022-10-16T09:26:02;1.83;;;1.20;;
24419;SDS011;12599;52.426;13.330;2022-10-16T09:28:28;2.17;;;1.53;;
24419;SDS011;12599;52.426;13.330;2022-10-16T09:30:54;1.33;;;1.23;;
24419;SDS011;12599;52.426;13.330;2022-10-16T09:33:30;2.20;;;1.70;;
24419;SDS011;12599;52.426;13.330;2022-10-16T09:36:00;5.50;;;2.07;;
24419;SDS011;12599;52.426;13.330;2022-10-16T09:38:30;3.57;;;1.73;;
24419;SDS011;12599;52.426;13.330;2022-10-16T09:40:58;3.70;;;1.77;;
24419;SDS011;12599;52.426;13.330;2022-10-16T09:48:46;3.60;;;1.67;;
24419;SDS011;12599;52.426;13.330;2022-10-16T09:51:17;1.30;;;1.20;;
24419;SDS011;12599;52.426;13.330;2022-10-16T09:56:35;1.53;;;1.30;;
24419;SDS011;12599;52.426;13.330;2022-10-16T09:59:10;2.77;;;1.30;;
24419;SDS011;12599;52.426;13.330;2022-10-16T10:01:49;3.50;;;1.30;;
24419;SDS011;12599;52.426;13.330;2022-10-16T10:04:20;1.73;;;1.40;;
24419;SDS011;12599;52.426;13.330;2022-10-16T10:06:48;1.37;;;1.17;;
24419;SDS011;12599;52.426;13.330;2022-10-16T10:09:29;2.07;;;1.20;;
24419;SDS011;12599;52.426;13.330;2022-10-16T10:12:03;4.43;;;1.37;;
24419;SDS011;12599;52.426;13.330;2022-10-16T10:14:35;2.40;;;1.37;;
24419;SDS011;12599;52.426;13.330;2022-10-16T10:19:42;2.13;;;1.03;;
24419;SDS011;12599;52.426;13.330;2022-10-16T10:22:15;2.20;;;0.97;;
24419;SDS011;12599;52.426;13.330;2022-10-16T10:24:44;1.73;;;1.07;;
24419;SDS011;12599;52.426;13.330;2022-10-16T10:27:37;1.20;;;0.97;;
24419;SDS011;12599;52.426;13.330;2022-10-16T10:30:24;3.70;;;1.30;;
24419;SDS011;12599;52.426;13.330;2022-10-16T10:33:03;3.47;;;0.80;;
24419;SDS011;12599;52.426;13.330;2022-10-16T10:35:52;2.93;;;1.37;;
24419;SDS011;12599;52.426;13.330;2022-10-16T10:38:46;1.47;;;0.80;;
24419;SDS011;12599;52.426;13.330;2022-10-16T10:50:26;2.30;;;0.80;;
24419;SDS011;12599;52.426;13.330;2022-10-16T10:53:47;4.73;;;1.20;;
24419;SDS011;12599;52.426;13.330;2022-10-16T10:58:59;1.47;;;1.30;;
24419;SDS011;12599;52.426;13.330;2022-10-16T11:01:37;1.23;;;1.00;;
24419;SDS011;12599;52.426;13.330;2022-10-16T11:07:18;2.03;;;0.80;;
24419;SDS011;12599;52.426;13.330;2022-10-16T11:09:55;1.60;;;0.80;;
24419;SDS011;12599;52.426;13.330;2022-10-16T11:12:28;0.83;;;0.83;;
24419;SDS011;12599;52.426;13.330;2022-10-16T11:15:00;0.67;;;0.67;;
24419;SDS011;12599;52.426;13.330;2022-10-16T11:17:40;1.17;;;0.70;;
24419;SDS011;12599;52.426;13.330;2022-10-16T11:20:23;1.47;;;1.00;;
24419;SDS011;12599;52.426;13.330;2022-10-16T11:22:53;0.70;;;0.70;;
24419;SDS011;12599;52.426;13.330;2022-10-16T11:25:25;1.67;;;0.90;;
24419;SDS011;12599;52.426;13.330;2022-10-16T11:30:49;1.03;;;0.60;;
24419;SDS011;12599;52.426;13.330;2022-10-16T11:33:29;2.67;;;1.37;;
24419;SDS011;12599;52.426;13.330;2022-10-16T11:38:58;2.07;;;1.40;;
24419;SDS011;12599;52.426;13.330;2022-10-16T11:41:29;1.13;;;0.80;;
24419;SDS011;12599;52.426;13.330;2022-10-16T11:47:01;1.63;;;0.60;;
24419;SDS011;12599;52.426;13.330;2022-10-16T11:49:45;1.70;;;0.70;;
24419;SDS011;12599;52.426;13.330;2022-10-16T11:52:16;2.83;;;1.37;;
24419;SDS011;12599;52.426;13.330;2022-10-16T11:54:59;2.37;;;0.80;;
24419;SDS011;12599;52.426;13.330;2022-10-16T11:57:27;3.33;;;0.70;;
24419;SDS011;12599;52.426;13.330;2022-10-16T11:59:58;2.97;;;0.70;;
24419;SDS011;12599;52.426;13.330;2022-10-16T12:08:26;3.53;;;1.40;;
24419;SDS011;12599;52.426;13.330;2022-10-16T12:10:52;2.47;;;1.57;;
24419;SDS011;12599;52.426;13.330;2022-10-16T12:13:30;0.90;;;0.70;;
24419;SDS011;12599;52.426;13.330;2022-10-16T12:18:32;2.80;;;1.20;;
24419;SDS011;12599;52.426;13.330;2022-10-16T12:20:58;1.27;;;0.93;;
24419;SDS011;12599;52.426;13.330;2022-10-16T12:23:29;1.67;;;0.80;;
24419;SDS011;12599;52.426;13.330;2022-10-16T12:25:56;1.03;;;0.80;;
24419;SDS011;12599;52.426;13.330;2022-10-16T12:28:27;1.60;;;0.83;;
24419;SDS011;12599;52.426;13.330;2022-10-16T12:30:55;1.20;;;0.57;;
24419;SDS011;12599;52.426;13.330;2022-10-16T12:33:35;2.33;;;0.60;;
24419;SDS011;12599;52.426;13.330;2022-10-16T12:36:29;0.40;;;0.40;;
24419;SDS011;12599;52.426;13.330;2022-10-16T12:38:57;1.10;;;0.77;;
24419;SDS011;12599;52.426;13.330;2022-10-16T12:41:31;1.13;;;0.60;;
24419;SDS011;12599;52.426;13.330;2022-10-16T12:44:01;2.10;;;0.70;;
24419;SDS011;12599;52.426;13.330;2022-10-16T12:49:19;1.13;;;0.60;;
24419;SDS011;12599;52.426;13.330;2022-10-16T12:51:58;1.67;;;0.80;;
24419;SDS011;12599;52.426;13.330;2022-10-16T12:54:37;1.23;;;0.80;;
24419;SDS011;12599;52.426;13.330;2022-10-16T12:57:07;1.80;;;0.60;;
24419;SDS011;12599;52.426;13.330;2022-10-16T13:05:30;3.33;;;1.33;;
24419;SDS011;12599;52.426;13.330;2022-10-16T13:10:53;2.97;;;0.93;;
24419;SDS011;12599;52.426;13.330;2022-10-16T13:19:11;0.57;;;0.50;;
24419;SDS011;12599;52.426;13.330;2022-10-16T13:27:56;1.20;;;0.70;;
24419;SDS011;12599;52.426;13.330;2022-10-16T13:30:30;0.77;;;0.40;;
24419;SDS011;12599;52.426;13.330;2022-10-16T13:33:03;3.00;;;0.67;;
24419;SDS011;12599;52.426;13.330;2022-10-16T13:35:51;1.50;;;0.70;;
24419;SDS011;12599;52.426;13.330;2022-10-16T13:38:20;0.77;;;0.47;;
24419;SDS011;12599;52.426;13.330;2022-10-16T13:40:48;1.60;;;0.77;;
24419;SDS011;12599;52.426;13.330;2022-10-16T13:43:25;3.90;;;0.60;;
24419;SDS011;12599;52.426;13.330;2022-10-16T13:45:52;3.77;;;1.03;;
24419;SDS011;12599;52.426;13.330;2022-10-16T13:48:22;1.10;;;0.97;;
24419;SDS011;12599;52.426;13.330;2022-10-16T13:51:02;2.50;;;0.60;;
24419;SDS011;12599;52.426;13.330;2022-10-16T13:53:39;2.07;;;0.60;;
24419;SDS011;12599;52.426;13.330;2022-10-16T13:56:06;1.17;;;0.60;;
24419;SDS011;12599;52.426;13.330;2022-10-16T13:58:36;1.90;;;0.90;;
24419;SDS011;12599;52.426;13.330;2022-10-16T14:01:02;1.30;;;0.40;;
24419;SDS011;12599;52.426;13.330;2022-10-16T14:03:48;0.90;;;0.63;;
24419;SDS011;12599;52.426;13.330;2022-10-16T14:06:16;1.43;;;0.83;;
24419;SDS011;12599;52.426;13.330;2022-10-16T14:08:48;1.20;;;0.57;;
24419;SDS011;12599;52.426;13.330;2022-10-16T14:11:26;0.77;;;0.77;;
24419;SDS011;12599;52.426;13.330;2022-10-16T14:13:55;0.90;;;0.70;;
24419;SDS011;12599;52.426;13.330;2022-10-16T14:16:22;1.00;;;0.70;;
24419;SDS011;12599;52.426;13.330;2022-10-16T14:19:00;2.30;;;0.97;;
24419;SDS011;12599;52.426;13.330;2022-10-16T14:21:30;1.50;;;1.00;;
24419;SDS011;12599;52.426;13.330;2022-10-16T14:23:57;0.93;;;0.87;;
24419;SDS011;12599;52.426;13.330;2022-10-16T14:26:23;0.77;;;0.67;;
24419;SDS011;12599;52.426;13.330;2022-10-16T14:29:08;2.27;;;0.80;;
24419;SDS011;12599;52.426;13.330;2022-10-16T14:31:37;1.20;;;0.90;;
24419;SDS011;12599;52.426;13.330;2022-10-16T14:34:04;1.67;;;0.90;;
24419;SDS011;12599;52.426;13.330;2022-10-16T14:36:49;4.30;;;0.90;;
24419;SDS011;12599;52.426;13.330;2022-10-16T14:39:19;3.20;;;0.80;;
24419;SDS011;12599;52.426;13.330;2022-10-16T14:41:50;0.83;;;0.70;;
24419;SDS011;12599;52.426;13.330;2022-10-16T14:44:19;1.70;;;0.93;;
24419;SDS011;12599;52.426;13.330;2022-10-16T14:46:52;2.60;;;1.03;;
24419;SDS011;12599;52.426;13.330;2022-10-16T14:49:18;1.73;;;0.87;;
24419;SDS011;12599;52.426;13.330;2022-10-16T14:51:45;0.67;;;0.67;;
24419;SDS011;12599;52.426;13.330;2022-10-16T14:54:12;2.33;;;0.60;;
24419;SDS011;12599;52.426;13.330;2022-10-16T14:59:30;1.90;;;0.67;;
24419;SDS011;12599;52.426;13.330;2022-10-16T15:01:57;0.60;;;0.60;;
24419;SDS011;12599;52.426;13.330;2022-10-16T15:04:23;0.87;;;0.70;;
24419;SDS011;12599;52.426;13.330;2022-10-16T15:06:48;1.27;;;0.83;;
24419;SDS011;12599;52.426;13.330;2022-10-16T15:09:14;2.43;;;0.60;;
24419;SDS011;12599;52.426;13.330;2022-10-16T15:11:41;1.60;;;0.60;;
24419;SDS011;12599;52.426;13.330;2022-10-16T15:14:09;2.83;;;0.97;;
24419;SDS011;12599;52.426;13.330;2022-10-16T15:16:37;0.83;;;0.60;;
24419;SDS011;12599;52.426;13.330;2022-10-16T15:19:03;0.50;;;0.50;;
24419;SDS011;12599;52.426;13.330;2022-10-16T15:21:30;1.97;;;0.97;;
24419;SDS011;12599;52.426;13.330;2022-10-16T15:23:57;2.40;;;0.93;;
24419;SDS011;12599;52.426;13.330;2022-10-16T15:26:27;2.43;;;0.50;;
24419;SDS011;12599;52.426;13.330;2022-10-16T15:28:53;0.87;;;0.67;;
24419;SDS011;12599;52.426;13.330;2022-10-16T15:31:19;1.33;;;0.90;;
24419;SDS011;12599;52.426;13.330;2022-10-16T15:33:48;2.27;;;1.00;;
24419;SDS011;12599;52.426;13.330;2022-10-16T15:36:24;1.80;;;1.00;;
24419;SDS011;12599;52.426;13.330;2022-10-16T15:38:54;1.00;;;0.90;;
24419;SDS011;12599;52.426;13.330;2022-10-16T15:41:21;2.10;;;1.03;;
24419;SDS011;12599;52.426;13.330;2022-10-16T15:43:50;1.20;;;0.63;;
24419;SDS011;12599;52.426;13.330;2022-10-16T15:46:20;1.17;;;1.07;;
24419;SDS011;12599;52.426;13.330;2022-10-16T15:48:48;1.60;;;0.80;;
24419;SDS011;12599;52.426;13.330;2022-10-16T15:51:14;0.80;;;0.70;;
24419;SDS011;12599;52.426;13.330;2022-10-16T15:53:41;3.53;;;1.10;;
24419;SDS011;12599;52.426;13.330;2022-10-16T15:56:11;2.67;;;1.20;;
24419;SDS011;12599;52.426;13.330;2022-10-16T15:58:40;2.60;;;0.90;;
24419;SDS011;12599;52.426;13.330;2022-10-16T16:01:08;1.30;;;1.20;;
24419;SDS011;12599;52.426;13.330;2022-10-16T16:03:35;0.80;;;0.80;;
24419;SDS011;12599;52.426;13.330;2022-10-16T16:06:05;2.03;;;1.33;;
24419;SDS011;12599;52.426;13.330;2022-10-16T16:08:33;1.67;;;0.90;;
24419;SDS011;12599;52.426;13.330;2022-10-16T16:11:04;2.70;;;1.20;;
24419;SDS011;12599;52.426;13.330;2022-10-16T16:13:31;1.90;;;1.10;;
24419;SDS011;12599;52.426;13.330;2022-10-16T16:15:57;1.57;;;1.30;;
24419;SDS011;12599;52.426;13.330;2022-10-16T16:18:23;3.00;;;1.50;;
24419;SDS011;12599;52.426;13.330;2022-10-16T16:20:49;4.50;;;2.20;;
24419;SDS011;12599;52.426;13.330;2022-10-16T16:23:15;4.53;;;2.10;;
24419;SDS011;12599;52.426;13.330;2022-10-16T16:25:41;5.57;;;3.20;;